createdAt,value
2019-05-16T00:01:09.355Z,14.80
2019-05-16T00:03:38.957Z,12.43
2019-05-16T00:06:08.639Z,10.37
2019-05-16T00:08:38.800Z,10.97
2019-05-16T00:11:08.576Z,9.67
2019-05-16T00:13:38.437Z,12.87
2019-05-16T00:16:08.013Z,10.43
2019-05-16T00:18:38.854Z,10.53
2019-05-16T00:21:08.808Z,10.57
2019-05-16T00:23:38.283Z,13.00
2019-05-16T00:26:07.956Z,12.03
2019-05-16T00:28:37.999Z,14.27
2019-05-16T00:31:08.629Z,15.33
2019-05-16T00:33:38.219Z,10.57
2019-05-16T00:36:09.164Z,13.07
2019-05-16T00:38:38.789Z,10.37
2019-05-16T00:41:08.575Z,11.27
2019-05-16T00:43:38.082Z,9.40
2019-05-16T00:46:08.280Z,11.77
2019-05-16T00:48:38.275Z,10.20
2019-05-16T00:51:08.015Z,8.73
2019-05-16T00:53:38.309Z,10.03
2019-05-16T00:56:08.427Z,11.57
2019-05-16T00:58:38.677Z,10.90
2019-05-16T01:01:08.697Z,9.20
2019-05-16T01:03:38.104Z,10.03
2019-05-16T01:06:16.669Z,8.43
2019-05-16T01:08:38.690Z,8.70
2019-05-16T01:11:08.093Z,9.00
2019-05-16T01:13:38.046Z,10.37
2019-05-16T01:16:08.640Z,8.77
2019-05-16T01:18:38.184Z,10.40
2019-05-16T01:21:07.958Z,9.87
2019-05-16T01:23:38.842Z,10.23
2019-05-16T01:26:08.387Z,11.30
2019-05-16T01:28:37.916Z,9.70
2019-05-16T01:31:08.581Z,10.60
2019-05-16T01:33:38.518Z,11.07
2019-05-16T01:36:08.973Z,11.10
2019-05-16T01:38:39.040Z,10.87
2019-05-16T01:41:08.824Z,10.27
2019-05-16T01:43:38.325Z,13.80
2019-05-16T01:46:08.416Z,12.40
2019-05-16T01:48:38.236Z,10.67
2019-05-16T01:51:07.879Z,10.00
2019-05-16T01:53:39.340Z,12.23
2019-05-16T01:56:08.637Z,11.47
2019-05-16T01:58:38.300Z,9.97
2019-05-16T02:01:13.247Z,10.60
2019-05-16T02:03:38.887Z,8.53
2019-05-16T02:06:08.800Z,9.50
2019-05-16T02:08:38.392Z,11.07
2019-05-16T02:11:08.542Z,9.13
2019-05-16T02:13:39.055Z,9.63
2019-05-16T02:16:08.587Z,9.13
2019-05-16T02:18:38.293Z,8.97
2019-05-16T02:21:07.948Z,13.93
2019-05-16T02:23:38.221Z,9.07
2019-05-16T02:26:08.021Z,11.27
2019-05-16T02:28:40.929Z,11.77
2019-05-16T02:31:14.724Z,11.33
2019-05-16T02:33:40.531Z,11.33
2019-05-16T02:36:10.920Z,12.57
2019-05-16T02:38:42.301Z,10.67
2019-05-16T02:41:11.599Z,11.97
2019-05-16T02:43:42.026Z,12.13
2019-05-16T02:46:12.191Z,11.27
2019-05-16T02:48:42.257Z,11.90
2019-05-16T02:51:11.598Z,13.20
2019-05-16T02:53:41.761Z,10.97
2019-05-16T02:56:12.278Z,12.90
2019-05-16T02:58:44.820Z,12.77
2019-05-16T03:01:12.898Z,16.00
2019-05-16T03:03:44.172Z,15.50
2019-05-16T03:06:14.662Z,11.00
2019-05-16T03:08:45.070Z,15.17
2019-05-16T03:11:14.846Z,17.20
2019-05-16T03:13:45.988Z,13.07
2019-05-16T03:16:16.018Z,15.93
2019-05-16T03:18:46.196Z,14.23
2019-05-16T03:21:15.520Z,14.43
2019-05-16T03:23:44.835Z,15.27
2019-05-16T03:26:14.206Z,13.83
2019-05-16T03:28:43.555Z,14.53
2019-05-16T03:31:14.742Z,15.60
2019-05-16T03:33:56.552Z,12.40
2019-05-16T03:36:16.076Z,13.93
2019-05-16T03:38:45.898Z,14.97
2019-05-16T03:41:15.268Z,14.43
2019-05-16T03:43:44.624Z,12.13
2019-05-16T03:46:13.984Z,13.33
2019-05-16T03:48:43.320Z,16.13
2019-05-16T03:51:12.671Z,13.17
2019-05-16T03:53:42.050Z,18.07
2019-05-16T03:56:11.443Z,19.40
2019-05-16T03:58:41.772Z,15.20
2019-05-16T04:01:11.657Z,13.90
2019-05-16T04:03:41.695Z,16.93
2019-05-16T04:06:12.128Z,17.57
2019-05-16T04:08:41.612Z,15.03
2019-05-16T04:11:11.818Z,13.40
2019-05-16T04:13:41.688Z,14.27
2019-05-16T04:16:12.005Z,15.37
2019-05-16T04:18:42.121Z,16.10
2019-05-16T04:21:12.140Z,15.20
2019-05-16T04:23:42.093Z,19.57
2019-05-16T04:26:11.799Z,15.33
2019-05-16T04:28:41.520Z,15.53
2019-05-16T04:31:11.307Z,15.13
2019-05-16T04:33:41.741Z,14.17
2019-05-16T04:36:11.231Z,14.33
2019-05-16T04:38:46.197Z,17.63
2019-05-16T04:41:11.904Z,17.17
2019-05-16T04:43:41.789Z,15.97
2019-05-16T04:46:11.849Z,18.63
2019-05-16T04:48:41.938Z,16.77
2019-05-16T04:51:11.428Z,15.37
2019-05-16T04:53:42.531Z,15.97
2019-05-16T04:56:11.838Z,14.53
2019-05-16T04:58:41.244Z,14.67
2019-05-16T05:01:11.380Z,16.77
2019-05-16T05:03:59.707Z,15.77
2019-05-16T05:06:12.029Z,16.27
2019-05-16T05:08:53.904Z,15.97
2019-05-16T05:11:12.466Z,14.63
2019-05-16T05:13:41.811Z,16.00
2019-05-16T05:16:11.175Z,15.60
2019-05-16T05:18:41.035Z,14.90
2019-05-16T05:21:11.689Z,13.20
2019-05-16T05:23:41.318Z,17.97
2019-05-16T05:26:10.928Z,13.77
2019-05-16T05:28:40.420Z,16.63
2019-05-16T05:31:10.860Z,12.93
2019-05-16T05:33:41.600Z,13.60
2019-05-16T05:36:12.288Z,19.13
2019-05-16T05:38:42.074Z,13.17
2019-05-16T05:41:11.453Z,14.67
2019-05-16T05:43:40.772Z,18.07
2019-05-16T05:46:11.220Z,18.03
2019-05-16T05:48:41.147Z,14.40
2019-05-16T05:51:11.292Z,19.53
2019-05-16T05:53:40.917Z,16.50
2019-05-16T05:56:11.232Z,14.97
2019-05-16T05:58:40.882Z,15.00
2019-05-16T06:01:11.086Z,16.00
2019-05-16T06:03:40.713Z,15.97
2019-05-16T06:06:10.697Z,16.50
2019-05-16T06:08:40.927Z,12.83
2019-05-16T06:11:10.493Z,13.80
2019-05-16T06:13:40.506Z,14.30
2019-05-16T06:16:10.810Z,17.40
2019-05-16T06:18:40.348Z,13.80
2019-05-16T06:21:11.545Z,18.53
2019-05-16T06:23:40.811Z,17.63
2019-05-16T06:26:12.236Z,14.27
2019-05-16T06:28:41.523Z,15.37
2019-05-16T06:31:13.825Z,14.43
2019-05-16T06:33:42.181Z,16.43
2019-05-16T06:36:11.536Z,18.23
2019-05-16T06:38:40.897Z,16.17
2019-05-16T06:41:10.793Z,20.53
2019-05-16T06:43:41.543Z,16.33
2019-05-16T06:46:11.198Z,15.87
2019-05-16T06:48:40.684Z,17.37
2019-05-16T06:51:10.781Z,16.43
2019-05-16T06:53:40.567Z,18.10
2019-05-16T06:56:10.481Z,18.10
2019-05-16T06:58:47.681Z,18.17
2019-05-16T07:01:11.197Z,16.47
2019-05-16T07:03:40.571Z,17.33
2019-05-16T07:06:26.223Z,13.60
2019-05-16T07:08:41.084Z,16.63
2019-05-16T07:11:10.717Z,16.87
2019-05-16T07:13:40.737Z,16.90
2019-05-16T07:16:10.184Z,16.47
2019-05-16T07:18:40.125Z,18.93
2019-05-16T07:21:10.910Z,15.30
2019-05-16T07:23:40.667Z,14.00
2019-05-16T07:26:11.543Z,14.07
2019-05-16T07:28:40.857Z,16.37
2019-05-16T07:31:15.656Z,16.50
2019-05-16T07:33:41.436Z,13.83
2019-05-16T07:36:10.823Z,15.67
2019-05-16T07:38:40.220Z,19.93
2019-05-16T07:41:11.065Z,13.47
2019-05-16T07:43:44.936Z,21.10
2019-05-16T07:46:14.291Z,15.40
2019-05-16T07:48:43.622Z,18.60
2019-05-16T07:51:12.966Z,16.37
2019-05-16T07:53:42.311Z,17.27
2019-05-16T07:56:11.662Z,16.90
2019-05-16T07:58:41.523Z,16.90
2019-05-16T08:01:12.566Z,17.43
2019-05-16T08:03:44.186Z,18.80
2019-05-16T08:06:13.068Z,21.23
2019-05-16T08:08:42.397Z,16.90
2019-05-16T08:11:12.394Z,20.17
2019-05-16T08:13:41.773Z,17.13
2019-05-16T08:16:11.089Z,17.93
2019-05-16T08:18:44.972Z,18.73
2019-05-16T08:21:16.597Z,18.47
2019-05-16T08:23:42.604Z,18.90
2019-05-16T08:26:11.928Z,18.70
2019-05-16T08:28:42.131Z,20.00
2019-05-16T08:31:11.936Z,17.73
2019-05-16T08:33:41.851Z,15.53
2019-05-16T08:36:12.057Z,16.63
2019-05-16T08:43:43.669Z,17.30
2019-05-16T08:46:12.998Z,16.03
2019-05-16T08:48:42.589Z,15.47
2019-05-16T08:50:11.009Z,18.93
2019-05-16T08:51:12.367Z,15.87
2019-05-16T08:53:43.600Z,15.77
2019-05-16T08:56:13.338Z,15.40
2019-05-16T08:58:42.860Z,15.80
2019-05-16T09:01:14.696Z,15.47
2019-05-16T09:03:43.382Z,15.77
2019-05-16T09:06:12.818Z,18.50
2019-05-16T09:08:42.136Z,15.80
2019-05-16T09:10:35.082Z,16.30
2019-05-16T09:11:29.845Z,17.03
2019-05-16T09:13:42.546Z,17.93
2019-05-16T09:16:11.912Z,19.27
2019-05-16T09:18:45.631Z,19.77
2019-05-16T09:21:12.273Z,15.43
2019-05-16T09:23:41.633Z,15.83
2019-05-16T09:26:15.412Z,15.30
2019-05-16T09:28:42.024Z,19.87
2019-05-16T09:31:11.372Z,16.97
2019-05-16T09:33:40.755Z,14.80
2019-05-16T09:36:10.117Z,18.93
2019-05-16T09:38:39.471Z,13.43
2019-05-16T09:41:08.819Z,15.03
2019-05-16T09:43:39.163Z,15.10
2019-05-16T09:46:08.643Z,15.80
2019-05-16T09:48:38.380Z,16.63
2019-05-16T09:51:07.929Z,14.57
2019-05-16T09:53:37.278Z,13.57
2019-05-16T09:56:07.186Z,18.40
2019-05-16T09:58:37.278Z,14.80
2019-05-16T10:01:07.020Z,17.13
2019-05-16T10:03:37.320Z,16.33
2019-05-16T10:06:07.957Z,17.33
2019-05-16T10:08:37.649Z,15.37
2019-05-16T10:11:07.226Z,16.47
2019-05-16T10:13:37.552Z,20.93
2019-05-16T10:16:07.533Z,15.93
2019-05-16T10:18:37.146Z,14.07
2019-05-16T10:21:08.065Z,16.33
2019-05-16T10:23:37.657Z,16.53
2019-05-16T10:26:06.984Z,16.27
2019-05-16T10:28:38.294Z,15.27
2019-05-16T10:31:07.378Z,16.23
2019-05-16T10:33:38.984Z,19.07
2019-05-16T10:36:08.574Z,16.77
2019-05-16T10:38:38.103Z,15.10
2019-05-16T10:41:07.532Z,16.40
2019-05-16T10:43:37.149Z,14.23
2019-05-16T10:46:06.765Z,21.57
2019-05-16T10:48:37.640Z,16.23
2019-05-16T10:51:07.865Z,15.87
2019-05-16T10:54:00.934Z,18.00
2019-05-16T10:56:08.504Z,16.70
2019-05-16T10:58:57.999Z,16.23
2019-05-16T11:01:22.492Z,16.70
2019-05-16T11:03:40.108Z,19.70
2019-05-16T11:06:24.455Z,16.23
2019-05-16T11:08:40.553Z,16.77
2019-05-16T11:11:09.920Z,16.00
2019-05-16T11:13:39.296Z,17.80
2019-05-16T11:16:09.521Z,15.27
2019-05-16T11:18:39.071Z,22.10
2019-05-16T11:21:08.377Z,18.83
2019-05-16T11:23:37.727Z,18.60
2019-05-16T11:26:07.132Z,15.33
2019-05-16T11:28:37.015Z,16.40
2019-05-16T11:31:07.647Z,17.53
2019-05-16T11:33:37.397Z,16.33
2019-05-16T11:36:08.115Z,17.00
2019-05-16T11:38:38.121Z,17.63
2019-05-16T11:41:07.591Z,18.40
2019-05-16T11:43:37.058Z,19.67
2019-05-16T11:46:06.395Z,18.33
2019-05-16T11:48:37.741Z,16.87
2019-05-16T11:51:07.412Z,16.20
2019-05-16T11:53:37.924Z,15.83
2019-05-16T11:56:08.305Z,18.07
2019-05-16T11:58:37.921Z,16.53
2019-05-16T12:01:07.850Z,17.27
2019-05-16T12:03:37.511Z,18.30
2019-05-16T12:06:10.234Z,15.37
2019-05-16T12:08:38.979Z,20.10
2019-05-16T12:11:08.386Z,16.87
2019-05-16T12:13:37.728Z,17.10
2019-05-16T12:16:07.769Z,19.77
2019-05-16T12:18:37.606Z,18.73
2019-05-16T12:21:07.794Z,17.07
2019-05-16T12:23:37.645Z,16.50
2019-05-16T12:26:08.000Z,22.03
2019-05-16T12:28:37.531Z,17.53
2019-05-16T12:31:07.297Z,17.33
2019-05-16T12:33:37.621Z,15.67
2019-05-16T12:36:07.821Z,17.20
2019-05-16T12:38:38.178Z,15.77
2019-05-16T12:41:07.669Z,14.57
2019-05-16T12:43:45.910Z,12.60
2019-05-16T12:46:08.217Z,14.87
2019-05-16T12:48:37.751Z,16.27
2019-05-16T12:51:08.303Z,16.00
2019-05-16T12:53:38.196Z,15.90
2019-05-16T12:56:07.547Z,18.60
2019-05-16T12:58:42.018Z,12.63
2019-05-16T13:01:08.046Z,14.43
2019-05-16T13:03:38.122Z,12.20
2019-05-16T13:06:07.448Z,14.70
2019-05-16T13:08:37.510Z,12.27
2019-05-16T13:11:07.489Z,10.73
2019-05-16T13:13:37.745Z,11.90
2019-05-16T13:16:07.654Z,15.30
2019-05-16T13:18:37.235Z,10.43
2019-05-16T13:21:06.954Z,12.90
2019-05-16T13:23:36.484Z,9.20
2019-05-16T13:26:07.293Z,9.07
2019-05-16T13:28:37.878Z,10.83
2019-05-16T13:31:07.892Z,9.30
2019-05-16T13:33:37.363Z,9.73
2019-05-16T13:36:07.403Z,13.63
2019-05-16T13:38:37.088Z,13.63
2019-05-16T13:41:07.469Z,9.33
2019-05-16T13:43:37.758Z,10.77
2019-05-16T13:46:07.438Z,13.73
2019-05-16T13:48:37.746Z,11.27
2019-05-16T13:51:14.944Z,8.20
2019-05-16T13:53:38.374Z,8.07
2019-05-16T13:56:13.015Z,8.17
2019-05-16T13:58:38.764Z,9.90
2019-05-16T14:01:08.220Z,11.10
2019-05-16T14:03:37.657Z,12.23
2019-05-16T14:06:07.367Z,10.13
2019-05-16T14:08:37.463Z,10.03
2019-05-16T14:11:10.179Z,8.30
2019-05-16T14:13:37.983Z,11.10
2019-05-16T14:16:07.546Z,11.83
2019-05-16T14:18:37.836Z,12.73
2019-05-16T14:21:07.527Z,11.10
2019-05-16T14:23:38.121Z,11.17
2019-05-16T14:26:07.618Z,9.60
2019-05-16T14:28:37.685Z,7.90
2019-05-16T14:31:07.610Z,12.03
2019-05-16T14:33:37.022Z,8.37
2019-05-16T14:36:07.378Z,8.53
2019-05-16T14:38:37.454Z,11.63
2019-05-16T14:41:08.055Z,9.77
2019-05-16T14:43:37.691Z,9.67
2019-05-16T14:46:09.446Z,9.80
2019-05-16T14:48:38.043Z,9.90
2019-05-16T14:51:07.395Z,12.43
2019-05-16T14:53:37.910Z,10.47
2019-05-16T14:56:07.495Z,12.17
2019-05-16T14:58:37.881Z,11.83
2019-05-16T15:01:07.711Z,13.10
2019-05-16T15:03:37.225Z,11.53
2019-05-16T15:06:08.535Z,13.43
2019-05-16T15:08:37.744Z,10.97
2019-05-16T15:11:07.716Z,11.10
2019-05-16T15:13:37.192Z,17.33
2019-05-16T15:16:07.613Z,14.43
2019-05-16T15:18:38.479Z,12.13
2019-05-16T15:21:08.851Z,9.40
2019-05-16T15:23:38.439Z,14.27
2019-05-16T15:26:09.470Z,9.97
2019-05-16T15:28:38.960Z,13.10
2019-05-16T15:31:08.284Z,9.30
2019-05-16T15:33:37.647Z,10.47
2019-05-16T15:36:08.509Z,11.60
2019-05-16T15:38:38.192Z,12.57
2019-05-16T15:41:08.441Z,9.37
2019-05-16T15:43:38.038Z,9.93
2019-05-16T15:46:08.597Z,11.70
2019-05-16T15:48:38.088Z,11.53
2019-05-16T15:51:09.026Z,9.13
2019-05-16T15:53:39.368Z,9.00
2019-05-16T15:56:10.370Z,10.37
2019-05-16T15:58:39.795Z,8.33
2019-05-16T16:01:09.265Z,9.97
2019-05-16T16:03:38.642Z,8.33
2019-05-16T16:06:08.022Z,9.47
2019-05-16T16:08:37.671Z,7.73
2019-05-16T16:11:07.696Z,9.70
2019-05-16T16:13:38.970Z,13.37
2019-05-16T16:16:10.254Z,9.57
2019-05-16T16:18:39.380Z,9.83
2019-05-16T16:21:10.491Z,7.73
2019-05-16T16:23:40.106Z,7.60
2019-05-16T16:26:09.443Z,9.07
2019-05-16T16:28:38.810Z,10.03
2019-05-16T16:31:09.350Z,9.07
2019-05-16T16:33:38.721Z,10.27
2019-05-16T16:36:08.135Z,9.47
2019-05-16T16:38:37.524Z,11.10
2019-05-16T16:41:08.145Z,8.93
2019-05-16T16:43:37.679Z,9.33
2019-05-16T16:46:12.883Z,10.53
2019-05-16T16:48:38.767Z,12.80
2019-05-16T16:51:08.228Z,13.20
2019-05-16T16:53:38.022Z,16.07
2019-05-16T16:56:07.779Z,11.87
2019-05-16T16:58:37.528Z,9.00
2019-05-16T17:01:07.707Z,9.47
2019-05-16T17:03:37.288Z,11.57
2019-05-16T17:06:06.808Z,11.83
2019-05-16T17:08:37.410Z,11.77
2019-05-16T17:11:07.870Z,14.00
2019-05-16T17:13:37.223Z,11.90
2019-05-16T17:16:21.190Z,12.03
2019-05-16T17:18:37.875Z,10.20
2019-05-16T17:21:07.944Z,13.03
2019-05-16T17:23:37.581Z,11.03
2019-05-16T17:26:07.383Z,12.57
2019-05-16T17:28:37.430Z,13.87
2019-05-16T17:31:07.306Z,11.53
2019-05-16T17:33:38.062Z,9.83
2019-05-16T17:36:09.008Z,13.13
2019-05-16T17:38:38.884Z,13.50
2019-05-16T17:41:08.259Z,9.63
2019-05-16T17:43:37.589Z,10.03
2019-05-16T17:46:07.258Z,12.63
2019-05-16T17:48:37.944Z,10.43
2019-05-16T17:51:07.597Z,11.27
2019-05-16T17:53:37.406Z,12.73
2019-05-16T17:56:07.147Z,24.93
2019-05-16T17:58:36.651Z,13.00
2019-05-16T18:01:07.665Z,11.23
2019-05-16T18:03:37.432Z,9.93
2019-05-16T18:06:06.898Z,11.30
2019-05-16T18:08:37.556Z,13.27
2019-05-16T18:11:07.398Z,9.90
2019-05-16T18:13:37.277Z,10.50
2019-05-16T18:16:07.430Z,10.70
2019-05-16T18:18:37.695Z,12.13
2019-05-16T18:21:07.346Z,11.17
2019-05-16T18:23:37.082Z,10.07
2019-05-16T18:26:07.756Z,10.47
2019-05-16T18:28:37.350Z,9.37
2019-05-16T18:31:06.713Z,7.77
2019-05-16T18:33:37.159Z,11.37
2019-05-16T18:36:07.729Z,8.30
2019-05-16T18:38:37.517Z,7.20
2019-05-16T18:41:07.773Z,10.93
2019-05-16T18:43:37.373Z,11.07
2019-05-16T18:46:07.336Z,8.40
2019-05-16T18:48:36.911Z,7.17
2019-05-16T18:51:06.802Z,8.77
2019-05-16T18:53:37.503Z,8.53
2019-05-16T18:56:07.838Z,6.87
2019-05-16T18:58:38.309Z,8.17
2019-05-16T19:01:07.663Z,8.63
2019-05-16T19:03:37.159Z,10.80
2019-05-16T19:06:07.759Z,9.03
2019-05-16T19:08:37.275Z,7.03
2019-05-16T19:11:07.625Z,9.60
2019-05-16T19:13:37.417Z,6.53
2019-05-16T19:16:06.879Z,9.17
2019-05-16T19:18:37.249Z,8.20
2019-05-16T19:21:07.488Z,9.37
2019-05-16T19:23:37.583Z,6.43
2019-05-16T19:26:07.442Z,6.47
2019-05-16T19:28:37.543Z,7.17
2019-05-16T19:31:07.024Z,6.23
2019-05-16T19:33:36.402Z,11.77
2019-05-16T19:36:07.347Z,6.87
2019-05-16T19:38:37.466Z,6.53
2019-05-16T19:41:08.001Z,8.27
2019-05-16T19:43:37.647Z,7.43
2019-05-16T19:46:07.000Z,6.50
2019-05-16T19:48:37.100Z,7.03
2019-05-16T19:51:07.530Z,8.63
2019-05-16T19:53:36.971Z,10.53
2019-05-16T19:56:07.261Z,6.77
2019-05-16T19:58:37.372Z,10.53
2019-05-16T20:01:06.897Z,7.30
2019-05-16T20:03:36.572Z,8.67
2019-05-16T20:06:07.470Z,6.07
2019-05-16T20:08:37.436Z,8.17
2019-05-16T20:11:07.039Z,10.07
2019-05-16T20:13:36.811Z,8.73
2019-05-16T20:16:06.207Z,9.87
2019-05-16T20:18:37.355Z,5.97
2019-05-16T20:21:06.893Z,5.37
2019-05-16T20:23:37.025Z,7.27
2019-05-16T20:26:07.769Z,8.57
2019-05-16T20:28:37.262Z,7.43
2019-05-16T20:31:07.870Z,9.63
2019-05-16T20:33:37.715Z,7.60
2019-05-16T20:36:09.577Z,7.60
2019-05-16T20:38:38.358Z,5.67
2019-05-16T20:41:09.356Z,5.13
2019-05-16T20:43:38.679Z,8.63
2019-05-16T20:46:08.010Z,8.10
2019-05-16T20:48:37.332Z,11.13
2019-05-16T20:51:07.245Z,7.83
2019-05-16T20:53:37.582Z,10.27
2019-05-16T20:56:06.985Z,9.80
2019-05-16T20:58:36.298Z,6.37
2019-05-16T21:01:07.008Z,7.63
2019-05-16T21:03:37.884Z,7.27
2019-05-16T21:06:08.731Z,8.40
2019-05-16T21:08:38.208Z,8.63
2019-05-16T21:11:07.525Z,8.73
2019-05-16T21:13:36.846Z,8.90
2019-05-16T21:16:07.179Z,8.43
2019-05-16T21:18:37.701Z,12.33
2019-05-16T21:21:07.820Z,10.77
2019-05-16T21:23:37.212Z,9.50
2019-05-16T21:26:06.582Z,11.57
2019-05-16T21:28:36.921Z,13.47
2019-05-16T21:31:07.486Z,11.10
2019-05-16T21:33:37.088Z,11.27
2019-05-16T21:36:07.235Z,11.43
2019-05-16T21:38:36.653Z,9.90
2019-05-16T21:41:07.301Z,12.57
2019-05-16T21:43:38.758Z,11.30
2019-05-16T21:46:08.083Z,10.40
2019-05-16T21:48:39.416Z,12.17
2019-05-16T21:51:08.764Z,10.27
2019-05-16T21:53:40.104Z,8.77
2019-05-16T21:56:09.441Z,9.53
2019-05-16T21:58:38.741Z,10.50
2019-05-16T22:01:11.247Z,10.10
2019-05-16T22:03:43.435Z,11.43
2019-05-16T22:06:19.972Z,10.40
2019-05-16T22:08:49.329Z,10.83
2019-05-16T22:11:18.745Z,9.23
2019-05-16T22:13:50.883Z,10.17
2019-05-16T22:16:20.267Z,11.67
2019-05-16T22:18:49.573Z,10.57
2019-05-16T22:21:18.933Z,12.70
2019-05-16T22:23:48.291Z,15.57
2019-05-16T22:26:18.868Z,10.43
2019-05-16T22:28:49.474Z,10.87
2019-05-16T22:31:18.889Z,12.57
2019-05-16T22:33:48.271Z,17.37
2019-05-16T22:36:20.358Z,10.03
2019-05-16T22:38:49.687Z,10.67
2019-05-16T22:41:19.035Z,12.30
2019-05-16T22:43:48.379Z,10.27
2019-05-16T22:46:18.002Z,9.70
2019-05-16T22:48:47.317Z,9.50
2019-05-16T22:51:16.861Z,10.83
2019-05-16T22:53:46.235Z,12.77
2019-05-16T22:56:17.426Z,10.70
2019-05-16T22:58:46.934Z,10.80
2019-05-16T23:01:18.209Z,9.73
2019-05-16T23:03:47.539Z,12.87
2019-05-16T23:06:16.893Z,10.93
2019-05-16T23:08:47.122Z,9.50
2019-05-16T23:11:16.480Z,15.87
2019-05-16T23:13:47.224Z,13.93
2019-05-16T23:16:17.158Z,11.77
2019-05-16T23:18:46.577Z,7.30
2019-05-16T23:21:18.015Z,14.00
2019-05-16T23:23:47.339Z,8.97
2019-05-16T23:26:17.730Z,9.57
2019-05-16T23:28:47.275Z,8.20
2019-05-16T23:31:16.768Z,6.23
2019-05-16T23:33:46.983Z,8.03
2019-05-16T23:36:17.478Z,10.27
2019-05-16T23:38:47.453Z,12.13
2019-05-16T23:41:17.359Z,6.83
2019-05-16T23:43:51.267Z,7.33
2019-05-16T23:46:20.638Z,7.97
2019-05-16T23:48:49.951Z,8.00
2019-05-16T23:51:19.285Z,6.37
2019-05-16T23:53:48.662Z,6.70
2019-05-16T23:56:19.140Z,4.73
2019-05-16T23:58:50.727Z,3.43
